Private Wetterstation Wechselburg
Wetterdaten: Donnerstag, 21.04.2011
Datum Zeit Temp. +2m Bodentemp. Temp.+5cm Temp. Wind Windchill X Diff Temp. Feuchte +2m Feuchte +5cm Sonnenschein Luftdruck Regen Wind Richtung Richtung Sonnenschein UV Taupunkt Windchill Windben
21.04.2011 00:00 11,7 C 16,4 C 10,0 C 10,6 C 8,4 C 0,0 C 77 % 83 % 0 % 1016,8 hPa 0,0 l/m 0,0 km/h (0 Bft) SW 225 0 min 0,0 UV-I 7,8 C 8,4 C 0,0 km/h (0 Bft)
21.04.2011 00:10 11,6 C 16,4 C 9,9 C 10,4 C 8,0 C 0,0 C 76 % 83 % 0 % 1016,8 hPa 0,0 l/m 0,5 km/h (0 Bft) N 0 0 min 0,0 UV-I 7,5 C 8,0 C 0,0 km/h (0 Bft)
21.04.2011 00:15 11,5 C 16,5 C 9,7 C 10,3 C 7,9 C 0,0 C 77 % 83 % 0 % 1016,6 hPa 0,0 l/m 0,0 km/h (0 Bft) S-SO 157 0 min 0,0 UV-I 7,6 C 7,9 C 0,0 km/h (0 Bft)
21.04.2011 00:20 11,3 C 16,5 C 9,6 C 10,2 C 7,9 C 0,0 C 77 % 83 % 0 % 1016,6 hPa 0,0 l/m 0,0 km/h (0 Bft) S-SO 157 0 min 0,0 UV-I 7,4 C 7,9 C 0,0 km/h (0 Bft)
21.04.2011 00:25 11,3 C 16,5 C 9,6 C 10,2 C 8,0 C 0,0 C 78 % 84 % 0 % 1016,6 hPa 0,0 l/m 0,5 km/h (0 Bft) O-NO 67 0 min 0,0 UV-I 7,6 C 8,0 C 0,0 km/h (0 Bft)
21.04.2011 00:30 11,2 C 16,4 C 9,5 C 10,2 C 8,1 C 0,0 C 78 % 85 % 0 % 1016,6 hPa 0,0 l/m 0,5 km/h (0 Bft) SW 225 0 min 0,0 UV-I 7,5 C 8,1 C 0,0 km/h (0 Bft)
21.04.2011 00:35 11,2 C 16,4 C 9,5 C 10,1 C 8,0 C 0,0 C 78 % 85 % 0 % 1016,6 hPa 0,0 l/m 0,0 km/h (0 Bft) W-SW 247 0 min 0,0 UV-I 7,5 C 8,0 C 0,0 km/h (0 Bft)
21.04.2011 00:40 11,1 C 16,4 C 9,4 C 10,0 C 7,9 C 0,0 C 78 % 85 % 0 % 1016,6 hPa 0,0 l/m 0,0 km/h (0 Bft) N-NW 337 0 min 0,0 UV-I 7,4 C 7,9 C 0,0 km/h (0 Bft)
21.04.2011 00:45 10,9 C 16,4 C 9,3 C 9,9 C 7,8 C 0,0 C 79 % 85 % 0 % 1016,6 hPa 0,0 l/m 0,0 km/h (0 Bft) N-NW 337 0 min 0,0 UV-I 7,4 C 7,8 C 0,0 km/h (0 Bft)
21.04.2011 00:50 10,9 C 16,3 C 9,3 C 9,8 C 7,7 C 0,0 C 79 % 85 % 0 % 1016,6 hPa 0,0 l/m 0,0 km/h (0 Bft) N-NW 337 0 min 0,0 UV-I 7,4 C 7,7 C 0,0 km/h (0 Bft)
21.04.2011 00:55 10,9 C 16,3 C 9,2 C 9,8 C 7,6 C 0,0 C 79 % 85 % 0 % 1016,4 hPa 0,0 l/m 0,0 km/h (0 Bft) N-NW 337 0 min 0,0 UV-I 7,4 C 7,6 C 0,0 km/h (0 Bft)
21.04.2011 01:00 10,8 C 16,3 C 9,2 C 9,7 C 7,5 C 0,0 C 79 % 85 % 0 % 1016,4 hPa 0,0 l/m 0,0 km/h (0 Bft) N-NW 337 0 min 0,0 UV-I 7,3 C 7,5 C 0,0 km/h (0 Bft)
21.04.2011 01:10 10,7 C 16,3 C 9,1 C 9,6 C 7,5 C 0,0 C 80 % 85 % 0 % 1016,4 hPa 0,0 l/m 0,0 km/h (0 Bft) N 0 0 min 0,0 UV-I 7,4 C 7,5 C 0,0 km/h (0 Bft)
21.04.2011 01:15 10,5 C 16,2 C 9,1 C 9,5 C 7,5 C 0,0 C 79 % 85 % 0 % 1016,6 hPa 0,0 l/m 0,0 km/h (0 Bft) N-NW 337 0 min 0,0 UV-I 7,0 C 7,5 C 0,0 km/h (0 Bft)
21.04.2011 01:20 10,5 C 16,2 C 8,9 C 9,5 C 7,5 C 0,0 C 80 % 85 % 0 % 1016,6 hPa 0,0 l/m 0,0 km/h (0 Bft) W-SW 247 0 min 0,0 UV-I 7,2 C 7,5 C 0,0 km/h (0 Bft)
21.04.2011 01:25 10,4 C 16,2 C 8,7 C 9,3 C 7,2 C 0,0 C 79 % 85 % 0 % 1016,6 hPa 0,0 l/m 0,0 km/h (0 Bft) SW 225 0 min 0,0 UV-I 6,9 C 7,2 C 0,0 km/h (0 Bft)
21.04.2011 01:31 10,4 C 16,2 C 8,7 C 9,2 C 6,9 C 0,0 C 79 % 85 % 0 % 1016,6 hPa 0,0 l/m 0,0 km/h (0 Bft) SW 225 0 min 0,0 UV-I 6,9 C 6,9 C 0,0 km/h (0 Bft)
21.04.2011 01:35 10,1 C 16,2 C 8,5 C 9,0 C 6,9 C 0,0 C 79 % 85 % 0 % 1016,6 hPa 0,0 l/m 0,0 km/h (0 Bft) O-NO 67 0 min 0,0 UV-I 6,6 C 6,9 C 0,0 km/h (0 Bft)
21.04.2011 01:40 10,1 C 16,1 C 8,5 C 9,0 C 6,7 C 0,0 C 79 % 86 % 0 % 1016,6 hPa 0,0 l/m 0,0 km/h (0 Bft) O-NO 67 0 min 0,0 UV-I 6,6 C 6,7 C 0,0 km/h (0 Bft)
21.04.2011 01:45 9,8 C 16,1 C 8,4 C 8,8 C 6,7 C 0,0 C 80 % 86 % 0 % 1016,6 hPa 0,0 l/m 0,0 km/h (0 Bft) NO 45 0 min 0,0 UV-I 6,5 C 6,7 C 0,0 km/h (0 Bft)
21.04.2011 01:50 9,9 C 16,1 C 8,4 C 8,8 C 6,6 C 0,0 C 80 % 86 % 0 % 1016,6 hPa 0,0 l/m 0,0 km/h (0 Bft) SW 225 0 min 0,0 UV-I 6,6 C 6,6 C 0,0 km/h (0 Bft)
21.04.2011 01:55 9,9 C 16,1 C 8,3 C 8,8 C 6,6 C 0,0 C 80 % 86 % 0 % 1016,6 hPa 0,0 l/m 0,0 km/h (0 Bft) SW 225 0 min 0,0 UV-I 6,6 C 6,6 C 0,0 km/h (0 Bft)
21.04.2011 02:00 9,9 C 16,0 C 8,3 C 8,8 C 6,6 C 0,0 C 80 % 86 % 0 % 1016,6 hPa 0,0 l/m 0,0 km/h (0 Bft) O-NO 67 0 min 0,0 UV-I 6,6 C 6,6 C 0,0 km/h (0 Bft)
21.04.2011 02:10 9,9 C 16,0 C 8,1 C 8,7 C 6,4 C 0,0 C 80 % 86 % 0 % 1016,6 hPa 0,0 l/m 0,0 km/h (0 Bft) N 0 0 min 0,0 UV-I 6,6 C 6,4 C 0,0 km/h (0 Bft)
21.04.2011 02:15 9,7 C 16,0 C 8,1 C 8,6 C 6,4 C 0,0 C 81 % 86 % 0 % 1016,7 hPa 0,0 l/m 0,0 km/h (0 Bft) SW 225 0 min 0,0 UV-I 6,6 C 6,4 C 0,0 km/h (0 Bft)
21.04.2011 02:20 9,6 C 15,9 C 8,0 C 8,5 C 6,3 C 0,0 C 81 % 86 % 0 % 1016,7 hPa 0,0 l/m 0,0 km/h (0 Bft) SW 225 0 min 0,0 UV-I 6,5 C 6,3 C 0,0 km/h (0 Bft)
21.04.2011 02:25 9,5 C 15,9 C 7,9 C 8,4 C 6,3 C 0,0 C 81 % 86 % 0 % 1016,7 hPa 0,0 l/m 0,0 km/h (0 Bft) O-NO 67 0 min 0,0 UV-I 6,4 C 6,3 C 0,0 km/h (0 Bft)
21.04.2011 02:30 9,5 C 15,9 C 7,9 C 8,5 C 6,4 C 0,0 C 81 % 87 % 0 % 1016,7 hPa 0,0 l/m 0,0 km/h (0 Bft) O-NO 67 0 min 0,0 UV-I 6,4 C 6,4 C 0,0 km/h (0 Bft)
21.04.2011 02:35 9,5 C 15,9 C 7,8 C 8,4 C 6,3 C 0,0 C 81 % 87 % 0 % 1016,7 hPa 0,0 l/m 0,0 km/h (0 Bft) SW 225 0 min 0,0 UV-I 6,4 C 6,3 C 0,0 km/h (0 Bft)
21.04.2011 02:40 9,4 C 15,8 C 7,7 C 8,3 C 6,2 C 0,0 C 81 % 87 % 0 % 1016,7 hPa 0,0 l/m 0,0 km/h (0 Bft) SW 225 0 min 0,0 UV-I 6,3 C 6,2 C 0,0 km/h (0 Bft)
21.04.2011 02:45 9,5 C 15,8 C 7,6 C 8,3 C 6,0 C 0,0 C 81 % 87 % 0 % 1016,7 hPa 0,0 l/m 0,0 km/h (0 Bft) SW 225 0 min 0,0 UV-I 6,4 C 6,0 C 0,0 km/h (0 Bft)
21.04.2011 02:50 9,4 C 15,8 C 7,5 C 8,2 C 5,9 C 0,0 C 80 % 87 % 0 % 1016,7 hPa 0,0 l/m 0,0 km/h (0 Bft) SW 225 0 min 0,0 UV-I 6,1 C 5,9 C 0,0 km/h (0 Bft)
21.04.2011 02:55 9,2 C 15,8 C 7,4 C 8,1 C 5,8 C 0,0 C 80 % 87 % 0 % 1016,6 hPa 0,0 l/m 0,0 km/h (0 Bft) SW 225 0 min 0,0 UV-I 5,9 C 5,8 C 0,0 km/h (0 Bft)
21.04.2011 03:00 9,1 C 15,7 C 7,5 C 8,0 C 5,8 C 0,0 C 80 % 87 % 0 % 1016,6 hPa 0,0 l/m 0,0 km/h (0 Bft) SW 225 0 min 0,0 UV-I 5,8 C 5,8 C 0,0 km/h (0 Bft)
21.04.2011 03:10 9,1 C 15,8 C 7,3 C 8,0 C 5,8 C 0,0 C 81 % 87 % 0 % 1016,6 hPa 0,0 l/m 0,0 km/h (0 Bft) N 0 0 min 0,0 UV-I 6,0 C 5,8 C 0,0 km/h (0 Bft)
21.04.2011 03:15 9,1 C 15,8 C 7,2 C 8,0 C 5,7 C 0,0 C 81 % 87 % 0 % 1016,9 hPa 0,0 l/m 0,0 km/h (0 Bft) SW 225 0 min 0,0 UV-I 6,0 C 5,7 C 0,0 km/h (0 Bft)
21.04.2011 03:20 8,8 C 15,7 C 7,2 C 7,7 C 5,6 C 0,0 C 81 % 87 % 0 % 1016,9 hPa 0,0 l/m 0,0 km/h (0 Bft) SW 225 0 min 0,0 UV-I 5,7 C 5,6 C 0,0 km/h (0 Bft)
21.04.2011 03:25 8,7 C 15,7 C 7,2 C 7,7 C 5,7 C 0,0 C 81 % 87 % 0 % 1016,9 hPa 0,0 l/m 0,0 km/h (0 Bft) SW 225 0 min 0,0 UV-I 5,6 C 5,7 C 0,0 km/h (0 Bft)
21.04.2011 03:30 8,7 C 15,7 C 7,2 C 7,7 C 5,7 C 0,0 C 82 % 88 % 0 % 1016,9 hPa 0,0 l/m 0,0 km/h (0 Bft) SW 225 0 min 0,0 UV-I 5,8 C 5,7 C 0,0 km/h (0 Bft)
21.04.2011 03:35 8,5 C 15,7 C 7,2 C 7,5 C 5,6 C 0,0 C 82 % 88 % 0 % 1016,8 hPa 0,0 l/m 0,0 km/h (0 Bft) SW 225 0 min 0,0 UV-I 5,6 C 5,6 C 0,0 km/h (0 Bft)
21.04.2011 03:40 8,4 C 15,6 C 7,1 C 7,5 C 5,6 C 0,0 C 82 % 88 % 0 % 1016,8 hPa 0,0 l/m 0,0 km/h (0 Bft) SW 225 0 min 0,0 UV-I 5,5 C 5,6 C 0,0 km/h (0 Bft)
21.04.2011 03:45 8,4 C 15,6 C 7,1 C 7,4 C 5,5 C 0,0 C 83 % 88 % 0 % 1016,8 hPa 0,0 l/m 0,0 km/h (0 Bft) SW 225 0 min 0,0 UV-I 5,7 C 5,5 C 0,0 km/h (0 Bft)
21.04.2011 03:50 8,5 C 15,6 C 7,0 C 7,5 C 5,6 C 0,0 C 83 % 88 % 0 % 1016,8 hPa 0,0 l/m 0,0 km/h (0 Bft) SW 225 0 min 0,0 UV-I 5,8 C 5,6 C 0,0 km/h (0 Bft)
21.04.2011 03:55 8,5 C 15,6 C 7,1 C 7,5 C 5,6 C 0,0 C 83 % 88 % 0 % 1016,8 hPa 0,0 l/m 0,0 km/h (0 Bft) SW 225 0 min 0,0 UV-I 5,8 C 5,6 C 0,0 km/h (0 Bft)
21.04.2011 04:00 8,5 C 15,6 C 6,9 C 7,5 C 5,5 C 0,0 C 83 % 88 % 0 % 1016,8 hPa 0,0 l/m 0,0 km/h (0 Bft) SW 225 0 min 0,0 UV-I 5,8 C 5,5 C 0,0 km/h (0 Bft)
21.04.2011 04:10 8,3 C 15,5 C 6,8 C 7,2 C 5,1 C 0,0 C 82 % 88 % 0 % 1016,8 hPa 0,0 l/m 0,0 km/h (0 Bft) N 0 0 min 0,0 UV-I 5,4 C 5,1 C 0,0 km/h (0 Bft)
21.04.2011 04:15 8,2 C 15,5 C 6,7 C 7,1 C 5,0 C 0,0 C 82 % 88 % 0 % 1016,5 hPa 0,0 l/m 0,0 km/h (0 Bft) SW 225 0 min 0,0 UV-I 5,3 C 5,0 C 0,0 km/h (0 Bft)
21.04.2011 04:20 8,0 C 15,5 C 6,7 C 7,0 C 5,0 C 0,0 C 82 % 88 % 0 % 1016,5 hPa 0,0 l/m 0,0 km/h (0 Bft) SW 225 0 min 0,0 UV-I 5,1 C 5,0 C 0,0 km/h (0 Bft)
21.04.2011 04:25 8,0 C 15,4 C 6,7 C 7,0 C 5,0 C 0,0 C 83 % 88 % 0 % 1016,5 hPa 0,0 l/m 0,0 km/h (0 Bft) SW 225 0 min 0,0 UV-I 5,3 C 5,0 C 0,0 km/h (0 Bft)
21.04.2011 04:30 8,0 C 15,4 C 6,7 C 7,0 C 4,9 C 0,0 C 83 % 88 % 0 % 1016,5 hPa 0,0 l/m 0,0 km/h (0 Bft) SW 225 0 min 0,0 UV-I 5,3 C 4,9 C 0,0 km/h (0 Bft)
21.04.2011 04:35 8,1 C 15,4 C 6,5 C 7,1 C 5,0 C 0,0 C 82 % 88 % 0 % 1016,9 hPa 0,0 l/m 0,0 km/h (0 Bft) S-SW 202 0 min 0,0 UV-I 5,2 C 5,0 C 0,0 km/h (0 Bft)
21.04.2011 04:40 8,1 C 15,4 C 6,4 C 7,1 C 5,0 C 0,0 C 82 % 88 % 0 % 1016,9 hPa 0,0 l/m 0,0 km/h (0 Bft) SW 225 0 min 0,0 UV-I 5,2 C 5,0 C 0,0 km/h (0 Bft)
21.04.2011 04:45 8,0 C 15,4 C 6,4 C 7,0 C 4,9 C 0,0 C 82 % 88 % 0 % 1016,9 hPa 0,0 l/m 0,0 km/h (0 Bft) SW 225 0 min 0,0 UV-I 5,1 C 4,9 C 0,0 km/h (0 Bft)
21.04.2011 04:50 8,0 C 15,2 C 6,3 C 7,0 C 4,9 C 0,0 C 82 % 88 % 0 % 1016,9 hPa 0,0 l/m 0,0 km/h (0 Bft) SW 225 0 min 0,0 UV-I 5,1 C 4,9 C 0,0 km/h (0 Bft)
21.04.2011 04:55 8,0 C 15,2 C 6,3 C 6,9 C 4,7 C 0,0 C 82 % 88 % 0 % 1016,6 hPa 0,0 l/m 0,0 km/h (0 Bft) SW 225 0 min 0,0 UV-I 5,1 C 4,7 C 0,0 km/h (0 Bft)
21.04.2011 05:00 7,9 C 15,2 C 6,3 C 6,8 C 4,6 C 0,0 C 82 % 88 % 0 % 1016,6 hPa 0,0 l/m 0,0 km/h (0 Bft) S 180 0 min 0,0 UV-I 5,0 C 4,6 C 0,0 km/h (0 Bft)
21.04.2011 05:10 7,9 C 15,1 C 6,2 C 6,8 C 4,6 C 0,0 C 82 % 88 % 0 % 1016,6 hPa 0,0 l/m 0,0 km/h (0 Bft) N 0 0 min 0,0 UV-I 5,0 C 4,6 C 0,0 km/h (0 Bft)
21.04.2011 05:15 7,9 C 15,1 C 6,2 C 6,8 C 4,5 C 0,0 C 83 % 88 % 0 % 1016,8 hPa 0,0 l/m 0,0 km/h (0 Bft) S 180 0 min 0,0 UV-I 5,2 C 4,5 C 0,0 km/h (0 Bft)
21.04.2011 05:20 7,9 C 15,1 C 6,3 C 6,8 C 4,7 C 0,0 C 83 % 89 % 0 % 1016,8 hPa 0,0 l/m 0,0 km/h (0 Bft) S 180 0 min 0,0 UV-I 5,2 C 4,7 C 0,0 km/h (0 Bft)
21.04.2011 05:25 7,9 C 15,1 C 6,3 C 6,9 C 4,8 C 0,0 C 83 % 89 % 0 % 1016,8 hPa 0,0 l/m 0,0 km/h (0 Bft) W-SW 247 0 min 0,0 UV-I 5,2 C 4,8 C 0,0 km/h (0 Bft)
21.04.2011 05:30 7,7 C 15,1 C 6,2 C 6,7 C 4,7 C 0,0 C 82 % 88 % 0 % 1016,8 hPa 0,0 l/m 0,0 km/h (0 Bft) W-SW 247 0 min 0,0 UV-I 4,8 C 4,7 C 0,0 km/h (0 Bft)
21.04.2011 05:35 7,7 C 15,0 C 6,1 C 6,7 C 4,6 C 0,0 C 83 % 88 % 0 % 1016,8 hPa 0,0 l/m 0,0 km/h (0 Bft) W-SW 247 0 min 0,0 UV-I 5,0 C 4,6 C 0,0 km/h (0 Bft)
21.04.2011 05:40 7,6 C 15,0 C 6,1 C 6,6 C 4,6 C 0,0 C 83 % 88 % 0 % 1016,8 hPa 0,0 l/m 0,0 km/h (0 Bft) W-SW 247 0 min 0,0 UV-I 4,9 C 4,6 C 0,0 km/h (0 Bft)
21.04.2011 05:45 7,5 C 15,0 C 6,1 C 6,6 C 4,7 C 0,0 C 83 % 88 % 0 % 1016,8 hPa 0,0 l/m 0,0 km/h (0 Bft) SW 225 0 min 0,0 UV-I 4,8 C 4,7 C 0,0 km/h (0 Bft)
21.04.2011 05:50 7,5 C 15,0 C 6,1 C 6,6 C 4,7 C 0,0 C 83 % 88 % 0 % 1016,8 hPa 0,0 l/m 0,0 km/h (0 Bft) W-SW 247 0 min 0,0 UV-I 4,8 C 4,7 C 0,0 km/h (0 Bft)
21.04.2011 05:55 7,6 C 15,0 C 6,0 C 6,6 C 4,5 C 0,0 C 83 % 88 % 0 % 1016,9 hPa 0,0 l/m 0,0 km/h (0 Bft) W-SW 247 0 min 0,0 UV-I 4,9 C 4,5 C 0,0 km/h (0 Bft)
21.04.2011 06:00 7,5 C 15,0 C 6,0 C 6,5 C 4,4 C 0,0 C 83 % 88 % 0 % 1016,9 hPa 0,0 l/m 0,0 km/h (0 Bft) W-SW 247 0 min 0,0 UV-I 4,8 C 4,4 C 0,0 km/h (0 Bft)
21.04.2011 06:10 7,4 C 15,0 C 5,8 C 6,3 C 4,1 C 0,0 C 83 % 88 % 0 % 1016,9 hPa 0,0 l/m 0,0 km/h (0 Bft) N 0 0 min 0,0 UV-I 4,7 C 4,1 C 0,0 km/h (0 Bft)
21.04.2011 06:15 7,5 C 15,0 C 5,9 C 6,4 C 4,1 C 0,0 C 83 % 88 % 0 % 1016,9 hPa 0,0 l/m 0,0 km/h (0 Bft) W-SW 247 0 min 0,0 UV-I 4,8 C 4,1 C 0,0 km/h (0 Bft)
21.04.2011 06:20 7,5 C 14,9 C 5,9 C 6,4 C 4,1 C 0,0 C 83 % 89 % 0 % 1016,9 hPa 0,0 l/m 0,0 km/h (0 Bft) W-SW 247 0 min 0,0 UV-I 4,8 C 4,1 C 0,0 km/h (0 Bft)
21.04.2011 06:25 7,5 C 14,9 C 5,8 C 6,4 C 4,1 C 0,0 C 83 % 89 % 0 % 1016,9 hPa 0,0 l/m 0,0 km/h (0 Bft) W-SW 247 0 min 0,0 UV-I 4,8 C 4,1 C 0,0 km/h (0 Bft)
21.04.2011 06:30 7,3 C 14,9 C 5,8 C 6,2 C 4,1 C 0,0 C 82 % 88 % 0 % 1016,9 hPa 0,0 l/m 0,0 km/h (0 Bft) W-SW 247 0 min 0,0 UV-I 4,4 C 4,1 C 0,0 km/h (0 Bft)
21.04.2011 06:35 7,9 C 14,9 C 5,8 C 6,7 C 4,3 C 0,0 C 83 % 89 % 0 % 1017,3 hPa 0,0 l/m 0,0 km/h (0 Bft) W-SW 247 0 min 0,0 UV-I 5,2 C 4,3 C 0,0 km/h (0 Bft)
21.04.2011 06:40 8,5 C 14,9 C 5,8 C 7,2 C 4,5 C 0,0 C 81 % 89 % 0 % 1017,3 hPa 0,0 l/m 0,0 km/h (0 Bft) O-SO 112 0 min 0,0 UV-I 5,4 C 4,5 C 0,0 km/h (0 Bft)
21.04.2011 06:45 9,4 C 14,8 C 5,8 C 7,8 C 4,6 C 0,0 C 79 % 89 % 0 % 1017,3 hPa 0,0 l/m 0,0 km/h (0 Bft) SW 225 0 min 0,0 UV-I 5,9 C 4,6 C 0,0 km/h (0 Bft)
21.04.2011 06:50 9,9 C 14,7 C 5,9 C 8,2 C 4,7 C 0,0 C 78 % 89 % 0 % 1017,3 hPa 0,0 l/m 0,0 km/h (0 Bft) SW 225 0 min 0,0 UV-I 6,2 C 4,7 C 0,0 km/h (0 Bft)
21.04.2011 06:55 10,5 C 14,7 C 5,9 C 8,8 C 5,3 C 0,0 C 75 % 89 % 0 % 1018,0 hPa 0,0 l/m 0,0 km/h (0 Bft) SW 225 0 min 0,0 UV-I 6,3 C 5,3 C 0,0 km/h (0 Bft)
21.04.2011 07:00 10,7 C 14,7 C 5,9 C 9,1 C 6,0 C 0,0 C 74 % 89 % 0 % 1018,0 hPa 0,0 l/m 0,0 km/h (0 Bft) SW 225 0 min 0,0 UV-I 6,3 C 6,0 C 0,0 km/h (0 Bft)
21.04.2011 07:10 12,1 C 14,7 C 6,3 C 10,5 C 7,4 C 0,0 C 72 % 89 % 0 % 1018,0 hPa 0,0 l/m 0,0 km/h (0 Bft) N 0 0 min 0,0 UV-I 7,2 C 7,4 C 0,0 km/h (0 Bft)
21.04.2011 07:15 12,5 C 14,7 C 6,3 C 11,0 C 8,1 C 0,0 C 70 % 89 % 0 % 1018,0 hPa 0,0 l/m 0,0 km/h (0 Bft) SW 225 0 min 0,0 UV-I 7,2 C 8,1 C 0,0 km/h (0 Bft)
21.04.2011 07:20 12,5 C 14,6 C 6,3 C 11,1 C 8,2 C 0,0 C 70 % 89 % 0 % 1018,0 hPa 0,0 l/m 0,0 km/h (0 Bft) S 180 0 min 0,0 UV-I 7,2 C 8,2 C 0,0 km/h (0 Bft)
21.04.2011 07:25 13,2 C 14,6 C 6,4 C 11,7 C 8,7 C 0,0 C 68 % 89 % 0 % 1018,0 hPa 0,0 l/m 0,0 km/h (0 Bft) SW 225 0 min 0,0 UV-I 7,4 C 8,7 C 0,0 km/h (0 Bft)
21.04.2011 07:30 13,3 C 14,6 C 6,4 C 11,8 C 8,9 C 0,0 C 67 % 89 % 0 % 1018,0 hPa 0,0 l/m 0,0 km/h (0 Bft) S 180 0 min 0,0 UV-I 7,3 C 8,9 C 0,0 km/h (0 Bft)
21.04.2011 07:35 12,8 C 14,5 C 6,5 C 11,7 C 9,5 C 0,0 C 68 % 89 % 0 % 1017,7 hPa 0,0 l/m 0,0 km/h (0 Bft) SW 225 0 min 0,0 UV-I 7,0 C 9,5 C 0,0 km/h (0 Bft)
21.04.2011 07:40 12,6 C 14,3 C 6,7 C 11,8 C 10,2 C 0,0 C 68 % 89 % 0 % 1017,7 hPa 0,0 l/m 0,0 km/h (0 Bft) SW 225 0 min 0,0 UV-I 6,9 C 10,2 C 0,0 km/h (0 Bft)
21.04.2011 07:45 13,3 C 14,3 C 6,9 C 12,6 C 11,3 C 0,0 C 67 % 89 % 0 % 1017,7 hPa 0,0 l/m 0,0 km/h (0 Bft) SW 225 0 min 0,0 UV-I 7,3 C 11,3 C 0,0 km/h (0 Bft)
21.04.2011 07:50 12,9 C 14,3 C 7,0 C 12,6 C 11,9 C 0,0 C 68 % 89 % 0 % 1017,7 hPa 0,0 l/m 0,0 km/h (0 Bft) SW 225 0 min 0,0 UV-I 7,1 C 11,9 C 0,0 km/h (0 Bft)
21.04.2011 07:55 12,8 C 14,3 C 7,1 C 12,6 C 12,2 C 0,0 C 69 % 89 % 0 % 1017,8 hPa 0,0 l/m 0,0 km/h (0 Bft) S 180 0 min 0,1 UV-I 7,3 C 12,2 C 0,0 km/h (0 Bft)
21.04.2011 08:00 13,1 C 14,3 C 7,3 C 12,9 C 12,6 C 0,0 C 68 % 89 % 0 % 1017,8 hPa 0,0 l/m 0,0 km/h (0 Bft) SW 225 0 min 0,1 UV-I 7,3 C 12,6 C 0,0 km/h (0 Bft)
21.04.2011 08:10 12,9 C 14,1 C 7,7 C 14,2 C 14,2 C 1,3 C 69 % 89 % 34 % 1017,8 hPa 0,0 l/m 0,0 km/h (0 Bft) N 0 0 min 0,1 UV-I 7,4 C 14,2 C 0,0 km/h (0 Bft)
21.04.2011 08:15 13,6 C 14,0 C 7,9 C 14,7 C 14,7 C 1,1 C 68 % 89 % 29 % 1017,9 hPa 0,0 l/m 0,0 km/h (0 Bft) W-SW 247 0 min 0,1 UV-I 7,8 C 14,7 C 0,0 km/h (0 Bft)
21.04.2011 08:20 13,4 C 14,0 C 8,0 C 15,1 C 15,1 C 1,7 C 68 % 89 % 45 % 1017,9 hPa 0,0 l/m 0,0 km/h (0 Bft) S-SW 202 0 min 0,1 UV-I 7,6 C 15,1 C 0,0 km/h (0 Bft)
21.04.2011 08:25 12,7 C 14,1 C 8,3 C 15,6 C 15,6 C 2,9 C 69 % 88 % 76 % 1017,9 hPa 0,0 l/m 0,0 km/h (0 Bft) S-SW 202 0 min 0,2 UV-I 7,2 C 15,6 C 0,0 km/h (0 Bft)
21.04.2011 08:30 12,6 C 14,0 C 8,5 C 15,7 C 15,7 C 3,1 C 70 % 87 % 82 % 1017,9 hPa 0,0 l/m 0,0 km/h (0 Bft) SW 225 0 min 0,2 UV-I 7,3 C 15,7 C 0,0 km/h (0 Bft)
21.04.2011 08:35 12,4 C 14,0 C 8,7 C 16,0 C 16,0 C 3,6 C 71 % 87 % 95 % 1017,8 hPa 0,0 l/m 0,0 km/h (0 Bft) SW 225 5 min 0,2 UV-I 7,3 C 16,0 C 0,0 km/h (0 Bft)
21.04.2011 08:40 12,4 C 13,9 C 8,9 C 16,4 C 16,4 C 4,0 C 71 % 87 % 100 % 1017,8 hPa 0,0 l/m 0,0 km/h (0 Bft) SW 225 5 min 0,2 UV-I 7,3 C 16,4 C 0,0 km/h (0 Bft)
21.04.2011 08:45 12,4 C 13,9 C 9,3 C 16,9 C 16,9 C 4,5 C 71 % 86 % 100 % 1017,8 hPa 0,0 l/m 0,0 km/h (0 Bft) S-SW 202 5 min 0,3 UV-I 7,3 C 16,9 C 0,0 km/h (0 Bft)
21.04.2011 08:50 12,5 C 13,9 C 9,6 C 17,6 C 17,6 C 5,1 C 71 % 86 % 100 % 1017,8 hPa 0,0 l/m 0,0 km/h (0 Bft) SW 225 5 min 0,3 UV-I 7,4 C 17,6 C 0,0 km/h (0 Bft)
21.04.2011 08:55 12,6 C 13,9 C 9,9 C 18,1 C 18,1 C 5,5 C 72 % 85 % 100 % 1017,8 hPa 0,0 l/m 0,0 km/h (0 Bft) SW 225 5 min 0,4 UV-I 7,7 C 18,1 C 0,0 km/h (0 Bft)
21.04.2011 09:00 12,7 C 13,9 C 10,1 C 18,6 C 18,6 C 5,9 C 72 % 85 % 100 % 1017,8 hPa 0,0 l/m 0,0 km/h (0 Bft) S 180 5 min 0,4 UV-I 7,8 C 18,6 C 0,0 km/h (0 Bft)
21.04.2011 09:10 12,8 C 13,9 C 10,8 C 19,6 C 19,6 C 6,8 C 72 % 84 % 100 % 1017,8 hPa 0,0 l/m 0,0 km/h (0 Bft) N 0 10 min 0,4 UV-I 7,9 C 19,6 C 0,0 km/h (0 Bft)
21.04.2011 09:15 13,0 C 13,9 C 11,5 C 20,0 C 20,0 C 7,0 C 73 % 83 % 100 % 1017,8 hPa 0,0 l/m 0,0 km/h (0 Bft) S 180 5 min 0,5 UV-I 8,3 C 20,0 C 0,0 km/h (0 Bft)
21.04.2011 09:20 13,2 C 13,9 C 11,7 C 19,4 C 19,4 C 6,2 C 73 % 82 % 100 % 1017,8 hPa 0,0 l/m 0,0 km/h (0 Bft) S-SW 202 5 min 0,5 UV-I 8,5 C 19,4 C 0,0 km/h (0 Bft)
21.04.2011 09:25 13,3 C 13,9 C 12,2 C 18,2 C 18,2 C 4,9 C 73 % 81 % 100 % 1017,8 hPa 0,0 l/m 0,0 km/h (0 Bft) SW 225 5 min 0,6 UV-I 8,6 C 18,2 C 0,0 km/h (0 Bft)
21.04.2011 09:30 13,5 C 13,8 C 12,7 C 17,6 C 17,6 C 4,1 C 72 % 80 % 100 % 1017,8 hPa 0,0 l/m 0,2 km/h (0 Bft) W-SW 247 5 min 0,6 UV-I 8,6 C 17,6 C 1,6 km/h (1 Bft)
21.04.2011 09:35 13,6 C 13,8 C 13,1 C 17,2 C 17,2 C 3,6 C 71 % 77 % 95 % 1017,8 hPa 0,0 l/m 1,0 km/h (0 Bft) W-SW 247 5 min 0,6 UV-I 8,4 C 17,2 C 2,6 km/h (1 Bft)
21.04.2011 09:40 13,7 C 13,8 C 13,5 C 16,9 C 16,9 C 3,2 C 70 % 76 % 84 % 1017,8 hPa 0,0 l/m 1,6 km/h (1 Bft) S-SW 202 0 min 0,6 UV-I 8,3 C 16,9 C 2,6 km/h (1 Bft)
21.04.2011 09:45 14,0 C 13,8 C 14,0 C 17,2 C 17,2 C 3,2 C 70 % 75 % 84 % 1017,8 hPa 0,0 l/m 2,1 km/h (1 Bft) SW 225 0 min 0,7 UV-I 8,6 C 17,2 C 3,4 km/h (1 Bft)
21.04.2011 09:50 14,1 C 13,8 C 14,2 C 17,6 C 17,6 C 3,5 C 70 % 74 % 92 % 1017,8 hPa 0,0 l/m 1,8 km/h (1 Bft) SW 225 5 min 0,7 UV-I 8,7 C 17,6 C 0,0 km/h (0 Bft)
21.04.2011 09:55 14,3 C 13,8 C 14,7 C 17,8 C 17,8 C 3,5 C 70 % 74 % 92 % 1017,8 hPa 0,0 l/m 1,3 km/h (1 Bft) SW 225 5 min 0,8 UV-I 8,9 C 17,8 C 2,6 km/h (1 Bft)
21.04.2011 10:00 14,5 C 13,8 C 15,1 C 17,9 C 17,9 C 3,4 C 69 % 73 % 89 % 1017,8 hPa 0,0 l/m 1,3 km/h (1 Bft) W-SW 247 5 min 0,8 UV-I 8,9 C 17,9 C 2,6 km/h (1 Bft)
21.04.2011 10:10 14,8 C 13,8 C 15,9 C 18,4 C 18,4 C 3,6 C 69 % 71 % 95 % 1017,8 hPa 0,0 l/m 1,3 km/h (1 Bft) N 0 10 min 0,9 UV-I 9,2 C 18,4 C 0,0 km/h (0 Bft)
21.04.2011 10:15 15,1 C 13,8 C 16,3 C 18,7 C 18,7 C 3,6 C 69 % 70 % 95 % 1017,6 hPa 0,0 l/m 1,1 km/h (1 Bft) W 270 5 min 0,9 UV-I 9,5 C 18,7 C 0,0 km/h (0 Bft)
21.04.2011 10:20 15,3 C 13,9 C 16,3 C 18,8 C 18,8 C 3,5 C 68 % 68 % 92 % 1017,6 hPa 0,0 l/m 1,0 km/h (0 Bft) S 180 5 min 0,9 UV-I 9,4 C 18,8 C 3,2 km/h (1 Bft)
21.04.2011 10:25 15,5 C 13,9 C 16,1 C 19,0 C 19,0 C 3,5 C 66 % 68 % 92 % 1017,6 hPa 0,0 l/m 0,5 km/h (0 Bft) W-NW 292 5 min 1,0 UV-I 9,2 C 19,0 C 0,0 km/h (0 Bft)
21.04.2011 10:30 15,7 C 13,9 C 16,0 C 19,0 C 19,0 C 3,3 C 65 % 66 % 87 % 1017,6 hPa 0,0 l/m 0,5 km/h (0 Bft) W-NW 292 5 min 1,0 UV-I 9,1 C 19,0 C 0,0 km/h (0 Bft)
21.04.2011 10:35 16,1 C 13,8 C 15,9 C 19,0 C 19,0 C 2,9 C 64 % 67 % 76 % 1017,9 hPa 0,0 l/m 0,5 km/h (0 Bft) W-SW 247 0 min 1,1 UV-I 9,3 C 19,0 C 2,1 km/h (1 Bft)
21.04.2011 10:40 16,2 C 13,9 C 15,9 C 19,0 C 19,0 C 2,8 C 64 % 68 % 74 % 1017,9 hPa 0,0 l/m 1,3 km/h (1 Bft) SW 225 0 min 1,1 UV-I 9,4 C 19,0 C 3,9 km/h (1 Bft)
21.04.2011 10:45 16,4 C 13,9 C 15,9 C 19,0 C 19,0 C 2,6 C 64 % 69 % 68 % 1017,9 hPa 0,0 l/m 2,3 km/h (1 Bft) S-SW 202 0 min 1,1 UV-I 9,6 C 19,0 C 2,6 km/h (1 Bft)
21.04.2011 10:50 16,6 C 13,9 C 15,9 C 19,1 C 19,1 C 2,5 C 64 % 69 % 66 % 1017,9 hPa 0,0 l/m 2,1 km/h (1 Bft) O-NO 67 0 min 1,1 UV-I 9,8 C 19,1 C 2,4 km/h (1 Bft)
21.04.2011 10:55 16,8 C 13,8 C 16,3 C 18,8 C 18,8 C 2,0 C 63 % 67 % 53 % 1017,8 hPa 0,0 l/m 2,3 km/h (1 Bft) N-NO 22 0 min 1,1 UV-I 9,7 C 18,8 C 4,5 km/h (1 Bft)
21.04.2011 11:00 17,0 C 13,9 C 16,4 C 18,7 C 18,7 C 1,7 C 62 % 67 % 45 % 1017,8 hPa 0,0 l/m 2,4 km/h (1 Bft) O-NO 67 0 min 1,1 UV-I 9,7 C 18,7 C 3,1 km/h (1 Bft)
21.04.2011 11:10 17,5 C 13,9 C 16,8 C 19,1 C 19,1 C 1,6 C 62 % 66 % 42 % 1017,8 hPa 0,0 l/m 2,4 km/h (1 Bft) N 0 0 min 1,2 UV-I 10,1 C 19,1 C 5,6 km/h (1 Bft)
21.04.2011 11:15 17,9 C 14,0 C 17,1 C 19,6 C 19,6 C 1,7 C 62 % 66 % 45 % 1017,8 hPa 0,0 l/m 3,4 km/h (1 Bft) O-NO 67 0 min 1,3 UV-I 10,5 C 19,6 C 7,6 km/h (2 Bft)
21.04.2011 11:20 18,0 C 14,0 C 17,2 C 19,6 C 19,6 C 1,6 C 61 % 65 % 42 % 1017,8 hPa 0,0 l/m 3,2 km/h (1 Bft) NO 45 0 min 1,3 UV-I 10,4 C 19,6 C 3,2 km/h (1 Bft)
21.04.2011 11:25 18,2 C 14,0 C 17,5 C 19,8 C 19,8 C 1,6 C 60 % 65 % 42 % 1017,8 hPa 0,0 l/m 3,2 km/h (1 Bft) N-NO 22 0 min 1,4 UV-I 10,3 C 19,8 C 2,3 km/h (1 Bft)
21.04.2011 11:30 18,3 C 14,0 C 17,4 C 20,0 C 20,0 C 1,7 C 59 % 65 % 45 % 1017,8 hPa 0,0 l/m 2,1 km/h (1 Bft) NO 45 0 min 1,4 UV-I 10,1 C 20,0 C 2,7 km/h (1 Bft)
21.04.2011 11:35 18,4 C 14,0 C 17,6 C 20,5 C 20,5 C 2,1 C 59 % 63 % 55 % 1017,7 hPa 0,0 l/m 1,3 km/h (1 Bft) N-NO 22 0 min 1,5 UV-I 10,2 C 20,5 C 1,8 km/h (1 Bft)
21.04.2011 11:40 18,4 C 14,0 C 17,7 C 20,6 C 20,6 C 2,2 C 59 % 65 % 58 % 1017,7 hPa 0,0 l/m 1,4 km/h (1 Bft) SW 225 0 min 1,5 UV-I 10,2 C 20,6 C 0,0 km/h (0 Bft)
21.04.2011 11:45 18,6 C 14,0 C 18,4 C 20,7 C 20,7 C 2,1 C 57 % 60 % 55 % 1017,7 hPa 0,0 l/m 1,4 km/h (1 Bft) NO 45 0 min 1,4 UV-I 9,9 C 20,7 C 2,4 km/h (1 Bft)
21.04.2011 11:50 18,9 C 14,1 C 19,0 C 21,0 C 21,0 C 2,1 C 57 % 61 % 55 % 1017,7 hPa 0,0 l/m 1,4 km/h (1 Bft) N-NO 22 0 min 1,4 UV-I 10,2 C 21,0 C 3,1 km/h (1 Bft)
21.04.2011 11:55 19,0 C 14,1 C 20,3 C 21,3 C 21,3 C 2,3 C 58 % 59 % 61 % 1017,5 hPa 0,0 l/m 1,3 km/h (1 Bft) O-NO 67 0 min 1,5 UV-I 10,5 C 21,3 C 2,4 km/h (1 Bft)
21.04.2011 12:00 19,1 C 14,1 C 20,8 C 21,2 C 21,2 C 2,1 C 58 % 57 % 55 % 1017,5 hPa 0,0 l/m 1,9 km/h (1 Bft) N-NW 337 0 min 1,5 UV-I 10,6 C 21,2 C 1,9 km/h (1 Bft)
21.04.2011 12:10 19,3 C 14,2 C 21,5 C 22,7 C 22,7 C 3,4 C 56 % 55 % 89 % 1017,5 hPa 0,0 l/m 2,3 km/h (1 Bft) N 0 10 min 1,5 UV-I 10,3 C 22,7 C 4,5 km/h (1 Bft)
21.04.2011 12:15 19,3 C 14,3 C 21,6 C 24,3 C 24,3 C 5,0 C 55 % 54 % 100 % 1017,5 hPa 0,0 l/m 1,6 km/h (1 Bft) NO 45 5 min 1,9 UV-I 10,0 C 24,3 C 0,0 km/h (0 Bft)
21.04.2011 12:20 19,5 C 14,3 C 21,8 C 24,9 C 24,9 C 5,4 C 54 % 51 % 100 % 1017,5 hPa 0,0 l/m 1,8 km/h (1 Bft) NO 45 5 min 1,9 UV-I 9,9 C 24,9 C 1,6 km/h (1 Bft)
21.04.2011 12:25 19,6 C 14,4 C 21,7 C 25,3 C 25,3 C 5,7 C 54 % 51 % 100 % 1017,5 hPa 0,0 l/m 2,6 km/h (1 Bft) NW 315 5 min 2,4 UV-I 10,0 C 25,3 C 2,4 km/h (1 Bft)
21.04.2011 12:30 19,8 C 14,4 C 21,7 C 25,6 C 25,6 C 5,8 C 55 % 55 % 100 % 1017,5 hPa 0,0 l/m 2,3 km/h (1 Bft) NW 315 5 min 2,4 UV-I 10,5 C 25,6 C 2,9 km/h (1 Bft)
21.04.2011 12:35 19,9 C 14,4 C 21,6 C 26,1 C 26,1 C 6,2 C 54 % 53 % 100 % 1017,6 hPa 0,0 l/m 1,8 km/h (1 Bft) O 90 5 min 2,6 UV-I 10,3 C 26,1 C 1,6 km/h (1 Bft)
21.04.2011 12:40 20,0 C 14,5 C 21,6 C 26,3 C 26,3 C 6,3 C 55 % 55 % 100 % 1017,6 hPa 0,0 l/m 1,6 km/h (1 Bft) W-NW 292 5 min 2,6 UV-I 10,7 C 26,3 C 1,6 km/h (1 Bft)
21.04.2011 12:45 20,1 C 14,5 C 21,9 C 27,0 C 27,0 C 6,9 C 55 % 52 % 100 % 1017,6 hPa 0,0 l/m 1,1 km/h (1 Bft) NO 45 5 min 2,6 UV-I 10,8 C 27,0 C 3,2 km/h (1 Bft)
21.04.2011 12:50 20,3 C 14,6 C 21,8 C 26,7 C 26,7 C 6,4 C 55 % 54 % 100 % 1017,6 hPa 0,0 l/m 1,8 km/h (1 Bft) N 360 5 min 2,6 UV-I 11,0 C 26,7 C 3,5 km/h (1 Bft)
21.04.2011 12:55 20,5 C 14,6 C 22,1 C 26,5 C 26,5 C 6,0 C 54 % 53 % 100 % 1017,0 hPa 0,0 l/m 3,1 km/h (1 Bft) N-NW 337 5 min 2,6 UV-I 10,9 C 26,5 C 6,0 km/h (2 Bft)
21.04.2011 13:00 20,5 C 14,7 C 22,5 C 26,5 C 26,5 C 6,0 C 54 % 51 % 100 % 1017,0 hPa 0,0 l/m 3,1 km/h (1 Bft) NW 315 5 min 2,6 UV-I 10,9 C 26,5 C 4,0 km/h (1 Bft)
21.04.2011 13:10 20,8 C 14,8 C 23,4 C 26,5 C 26,5 C 5,7 C 52 % 47 % 100 % 1017,0 hPa 0,0 l/m 3,2 km/h (1 Bft) N 0 10 min 2,7 UV-I 10,6 C 26,5 C 8,5 km/h (2 Bft)
21.04.2011 13:15 20,9 C 14,8 C 23,4 C 26,7 C 26,7 C 5,8 C 51 % 46 % 100 % 1017,0 hPa 0,0 l/m 2,3 km/h (1 Bft) O-NO 67 5 min 2,7 UV-I 10,4 C 26,7 C 0,0 km/h (0 Bft)
21.04.2011 13:20 20,9 C 14,9 C 23,6 C 27,0 C 27,0 C 6,1 C 50 % 47 % 100 % 1017,0 hPa 0,0 l/m 1,8 km/h (1 Bft) O-NO 67 5 min 2,7 UV-I 10,1 C 27,0 C 3,1 km/h (1 Bft)
21.04.2011 13:25 21,1 C 14,9 C 23,6 C 27,4 C 27,4 C 6,3 C 50 % 46 % 100 % 1017,0 hPa 0,0 l/m 1,4 km/h (1 Bft) NO 45 5 min 2,7 UV-I 10,3 C 27,4 C 3,1 km/h (1 Bft)
21.04.2011 13:30 21,0 C 15,0 C 23,9 C 27,6 C 27,6 C 6,6 C 50 % 47 % 100 % 1017,0 hPa 0,0 l/m 1,9 km/h (1 Bft) O-SO 112 5 min 2,7 UV-I 10,2 C 27,6 C 2,9 km/h (1 Bft)
21.04.2011 13:35 21,1 C 15,0 C 23,6 C 27,0 C 27,0 C 5,9 C 48 % 45 % 100 % 1016,8 hPa 0,0 l/m 3,1 km/h (1 Bft) O-SO 112 5 min 2,7 UV-I 9,7 C 27,0 C 3,7 km/h (1 Bft)
21.04.2011 13:40 21,2 C 15,0 C 23,9 C 27,1 C 27,1 C 5,9 C 48 % 47 % 100 % 1016,8 hPa 0,0 l/m 3,2 km/h (1 Bft) NW 315 5 min 2,7 UV-I 9,7 C 27,1 C 3,1 km/h (1 Bft)
21.04.2011 13:45 21,5 C 15,1 C 24,0 C 27,3 C 27,3 C 5,8 C 48 % 46 % 100 % 1016,8 hPa 0,0 l/m 2,9 km/h (1 Bft) N-NW 337 5 min 2,7 UV-I 10,0 C 27,3 C 5,1 km/h (1 Bft)
21.04.2011 13:50 21,5 C 15,1 C 24,3 C 27,8 C 27,8 C 6,3 C 47 % 45 % 100 % 1016,8 hPa 0,0 l/m 2,3 km/h (1 Bft) NW 315 5 min 2,7 UV-I 9,7 C 27,8 C 5,8 km/h (2 Bft)
21.04.2011 13:55 21,6 C 15,1 C 24,6 C 27,2 C 27,2 C 5,6 C 41 % 38 % 100 % 1016,6 hPa 0,0 l/m 3,7 km/h (1 Bft) NO 45 5 min 2,6 UV-I 7,8 C 27,2 C 10,6 km/h (2 Bft)
21.04.2011 14:00 21,8 C 15,1 C 24,4 C 26,8 C 26,8 C 5,0 C 41 % 38 % 100 % 1016,6 hPa 0,0 l/m 5,0 km/h (1 Bft) NW 315 5 min 2,6 UV-I 8,0 C 26,8 C 4,8 km/h (1 Bft)
21.04.2011 14:10 21,9 C 15,2 C 24,9 C 27,3 C 27,3 C 5,4 C 43 % 41 % 100 % 1016,6 hPa 0,0 l/m 3,2 km/h (1 Bft) N 0 10 min 2,5 UV-I 8,7 C 27,3 C 4,2 km/h (1 Bft)
21.04.2011 14:15 21,6 C 15,4 C 24,1 C 25,8 C 25,8 C 4,2 C 43 % 42 % 100 % 1016,8 hPa 0,0 l/m 3,1 km/h (1 Bft) NW 315 5 min 1,8 UV-I 8,5 C 25,8 C 4,2 km/h (1 Bft)
21.04.2011 14:20 21,6 C 15,4 C 24,4 C 25,9 C 25,9 C 4,3 C 43 % 41 % 100 % 1016,8 hPa 0,0 l/m 3,4 km/h (1 Bft) NW 315 5 min 1,8 UV-I 8,5 C 25,9 C 8,5 km/h (2 Bft)
21.04.2011 14:25 21,3 C 15,4 C 23,5 C 24,7 C 24,7 C 3,4 C 41 % 43 % 89 % 1016,8 hPa 0,0 l/m 3,1 km/h (1 Bft) NW 315 5 min 1,4 UV-I 7,5 C 24,7 C 3,1 km/h (1 Bft)
21.04.2011 14:30 21,3 C 15,4 C 23,5 C 24,7 C 24,7 C 3,4 C 42 % 42 % 89 % 1016,8 hPa 0,0 l/m 2,4 km/h (1 Bft) W-SW 247 5 min 1,4 UV-I 7,9 C 24,7 C 2,3 km/h (1 Bft)
21.04.2011 14:35 21,4 C 15,5 C 23,2 C 24,6 C 24,6 C 3,2 C 42 % 40 % 84 % 1016,4 hPa 0,0 l/m 0,8 km/h (0 Bft) NO 45 0 min 1,7 UV-I 8,0 C 24,6 C 0,0 km/h (0 Bft)
21.04.2011 14:40 21,9 C 15,6 C 24,6 C 25,7 C 25,7 C 3,8 C 41 % 38 % 100 % 1016,4 hPa 0,0 l/m 1,0 km/h (0 Bft) N 360 5 min 1,7 UV-I 8,0 C 25,7 C 3,1 km/h (1 Bft)
21.04.2011 14:45 22,1 C 15,6 C 25,7 C 27,2 C 27,2 C 5,1 C 39 % 35 % 100 % 1016,4 hPa 0,0 l/m 2,1 km/h (1 Bft) O-NO 67 5 min 2,1 UV-I 7,5 C 27,2 C 4,7 km/h (1 Bft)
21.04.2011 14:50 22,1 C 15,7 C 25,7 C 27,5 C 27,5 C 5,4 C 39 % 35 % 100 % 1016,4 hPa 0,0 l/m 2,9 km/h (1 Bft) O-NO 67 5 min 2,1 UV-I 7,5 C 27,5 C 6,1 km/h (2 Bft)
21.04.2011 14:55 22,4 C 15,7 C 26,3 C 28,0 C 28,0 C 5,6 C 40 % 37 % 100 % 1016,6 hPa 0,0 l/m 2,6 km/h (1 Bft) N 360 5 min 1,9 UV-I 8,1 C 28,0 C 4,0 km/h (1 Bft)
21.04.2011 15:00 22,5 C 15,7 C 26,4 C 28,3 C 28,3 C 5,8 C 39 % 34 % 100 % 1016,6 hPa 0,0 l/m 2,3 km/h (1 Bft) O 90 5 min 1,9 UV-I 7,8 C 28,3 C 3,1 km/h (1 Bft)
21.04.2011 15:10 22,7 C 15,8 C 26,7 C 29,2 C 29,2 C 6,5 C 40 % 37 % 100 % 1016,6 hPa 0,0 l/m 1,0 km/h (0 Bft) N 0 10 min 1,7 UV-I 8,4 C 29,2 C 1,6 km/h (1 Bft)
21.04.2011 15:15 22,9 C 15,9 C 27,2 C 29,5 C 29,5 C 6,6 C 39 % 36 % 100 % 1016,7 hPa 0,0 l/m 1,9 km/h (1 Bft) N-NW 337 5 min 1,8 UV-I 8,2 C 29,5 C 5,5 km/h (1 Bft)
21.04.2011 15:20 23,1 C 15,9 C 27,2 C 29,4 C 29,4 C 6,3 C 39 % 33 % 100 % 1016,7 hPa 0,0 l/m 2,9 km/h (1 Bft) W-SW 247 5 min 1,8 UV-I 8,4 C 29,4 C 4,8 km/h (1 Bft)
21.04.2011 15:25 23,1 C 15,9 C 26,8 C 29,3 C 29,3 C 6,2 C 39 % 34 % 100 % 1016,7 hPa 0,0 l/m 3,1 km/h (1 Bft) W-NW 292 5 min 1,6 UV-I 8,4 C 29,3 C 4,3 km/h (1 Bft)
21.04.2011 15:30 23,1 C 16,0 C 26,9 C 29,2 C 29,2 C 6,1 C 38 % 34 % 100 % 1016,7 hPa 0,0 l/m 2,4 km/h (1 Bft) O 90 5 min 1,6 UV-I 8,0 C 29,2 C 3,9 km/h (1 Bft)
21.04.2011 15:35 23,1 C 16,0 C 26,5 C 28,7 C 28,7 C 5,6 C 39 % 38 % 100 % 1016,4 hPa 0,0 l/m 2,4 km/h (1 Bft) NW 315 5 min 1,6 UV-I 8,4 C 28,7 C 1,8 km/h (1 Bft)
21.04.2011 15:40 23,1 C 16,1 C 26,8 C 28,9 C 28,9 C 5,8 C 39 % 37 % 100 % 1016,4 hPa 0,0 l/m 2,3 km/h (1 Bft) O 90 5 min 1,6 UV-I 8,4 C 28,9 C 0,0 km/h (0 Bft)
21.04.2011 15:45 23,2 C 16,1 C 27,3 C 29,3 C 29,3 C 6,1 C 39 % 37 % 100 % 1016,4 hPa 0,0 l/m 1,6 km/h (1 Bft) W-NW 292 5 min 1,5 UV-I 8,5 C 29,3 C 0,0 km/h (0 Bft)
21.04.2011 15:50 23,3 C 16,1 C 27,1 C 29,3 C 29,3 C 6,0 C 39 % 36 % 100 % 1016,4 hPa 0,0 l/m 1,6 km/h (1 Bft) O-NO 67 5 min 1,5 UV-I 8,6 C 29,3 C 3,1 km/h (1 Bft)
21.04.2011 15:55 23,1 C 16,2 C 26,5 C 28,7 C 28,7 C 5,6 C 39 % 35 % 100 % 1016,1 hPa 0,0 l/m 2,6 km/h (1 Bft) O-NO 67 5 min 1,4 UV-I 8,4 C 28,7 C 4,5 km/h (1 Bft)
21.04.2011 16:00 23,0 C 16,2 C 26,3 C 28,2 C 28,2 C 5,2 C 38 % 34 % 100 % 1016,1 hPa 0,0 l/m 3,2 km/h (1 Bft) O-NO 67 5 min 1,4 UV-I 7,9 C 28,2 C 4,3 km/h (1 Bft)
21.04.2011 16:10 23,2 C 16,4 C 25,7 C 27,9 C 27,9 C 4,7 C 38 % 35 % 100 % 1016,1 hPa 0,0 l/m 2,9 km/h (1 Bft) N 0 10 min 1,2 UV-I 8,1 C 27,9 C 4,2 km/h (1 Bft)
21.04.2011 16:15 23,2 C 16,4 C 25,4 C 27,8 C 27,8 C 4,6 C 38 % 35 % 100 % 1015,9 hPa 0,0 l/m 3,1 km/h (1 Bft) O-NO 67 5 min 1,1 UV-I 8,1 C 27,8 C 4,2 km/h (1 Bft)
21.04.2011 16:20 23,1 C 16,5 C 25,2 C 27,9 C 27,9 C 4,8 C 38 % 38 % 100 % 1015,9 hPa 0,0 l/m 3,1 km/h (1 Bft) N-NW 337 5 min 1,1 UV-I 8,0 C 27,9 C 2,9 km/h (1 Bft)
21.04.2011 16:25 23,2 C 16,5 C 25,2 C 28,0 C 28,0 C 4,8 C 39 % 37 % 100 % 1015,9 hPa 0,0 l/m 2,6 km/h (1 Bft) N-NW 337 5 min 1,0 UV-I 8,5 C 28,0 C 2,9 km/h (1 Bft)
21.04.2011 16:30 23,3 C 16,6 C 25,1 C 28,0 C 28,0 C 4,7 C 39 % 39 % 100 % 1015,9 hPa 0,0 l/m 2,4 km/h (1 Bft) W-NW 292 5 min 1,0 UV-I 8,6 C 28,0 C 2,7 km/h (1 Bft)
21.04.2011 16:35 23,3 C 16,6 C 24,8 C 28,0 C 28,0 C 4,7 C 39 % 37 % 100 % 1015,5 hPa 0,0 l/m 2,1 km/h (1 Bft) O-NO 67 5 min 0,8 UV-I 8,6 C 28,0 C 2,1 km/h (1 Bft)
21.04.2011 16:40 23,1 C 16,6 C 24,5 C 28,0 C 28,0 C 4,9 C 39 % 38 % 100 % 1015,5 hPa 0,0 l/m 1,8 km/h (1 Bft) O-NO 67 5 min 0,8 UV-I 8,4 C 28,0 C 3,9 km/h (1 Bft)
21.04.2011 16:45 23,1 C 16,7 C 24,2 C 27,4 C 27,4 C 4,3 C 38 % 37 % 100 % 1015,5 hPa 0,0 l/m 2,1 km/h (1 Bft) O-NO 67 5 min 0,7 UV-I 8,0 C 27,4 C 2,7 km/h (1 Bft)
21.04.2011 16:50 23,1 C 16,7 C 24,3 C 27,3 C 27,3 C 4,2 C 39 % 39 % 100 % 1015,5 hPa 0,0 l/m 2,4 km/h (1 Bft) NO 45 5 min 0,7 UV-I 8,4 C 27,3 C 4,0 km/h (1 Bft)
21.04.2011 16:55 23,1 C 16,7 C 23,9 C 27,1 C 27,1 C 4,0 C 38 % 38 % 100 % 1015,8 hPa 0,0 l/m 2,4 km/h (1 Bft) NO 45 5 min 0,6 UV-I 8,0 C 27,1 C 2,4 km/h (1 Bft)
21.04.2011 17:00 23,1 C 16,8 C 23,9 C 26,8 C 26,8 C 3,7 C 37 % 37 % 97 % 1015,8 hPa 0,0 l/m 3,1 km/h (1 Bft) O-NO 67 5 min 0,6 UV-I 7,6 C 26,8 C 5,1 km/h (1 Bft)
21.04.2011 17:10 22,9 C 16,8 C 23,6 C 26,0 C 26,0 C 3,1 C 37 % 37 % 82 % 1015,8 hPa 0,0 l/m 3,9 km/h (1 Bft) N 0 0 min 0,5 UV-I 7,4 C 26,0 C 2,4 km/h (1 Bft)
21.04.2011 17:15 23,2 C 16,8 C 23,7 C 26,5 C 26,5 C 3,3 C 38 % 38 % 87 % 1015,7 hPa 0,0 l/m 1,9 km/h (1 Bft) NW 315 5 min 0,4 UV-I 8,1 C 26,5 C 1,9 km/h (1 Bft)
21.04.2011 17:20 23,2 C 16,9 C 23,7 C 26,9 C 26,9 C 3,7 C 37 % 37 % 97 % 1015,7 hPa 0,0 l/m 1,1 km/h (1 Bft) O-NO 67 5 min 0,4 UV-I 7,7 C 26,9 C 2,1 km/h (1 Bft)
21.04.2011 17:25 23,2 C 16,9 C 23,6 C 27,0 C 27,0 C 3,8 C 38 % 39 % 100 % 1015,7 hPa 0,0 l/m 1,3 km/h (1 Bft) O-NO 67 5 min 0,4 UV-I 8,1 C 27,0 C 4,3 km/h (1 Bft)
21.04.2011 17:30 23,3 C 16,9 C 23,5 C 26,9 C 26,9 C 3,6 C 37 % 38 % 95 % 1015,7 hPa 0,0 l/m 1,6 km/h (1 Bft) NO 45 5 min 0,4 UV-I 7,8 C 26,9 C 2,9 km/h (1 Bft)
21.04.2011 17:35 23,1 C 16,9 C 23,3 C 26,7 C 26,7 C 3,6 C 39 % 38 % 95 % 1015,6 hPa 0,0 l/m 1,8 km/h (1 Bft) N-NO 22 5 min 0,4 UV-I 8,4 C 26,7 C 0,0 km/h (0 Bft)
21.04.2011 17:40 23,0 C 16,9 C 23,1 C 26,4 C 26,4 C 3,4 C 39 % 40 % 89 % 1015,6 hPa 0,0 l/m 2,4 km/h (1 Bft) O-NO 67 5 min 0,4 UV-I 8,3 C 26,4 C 5,5 km/h (1 Bft)
21.04.2011 17:45 22,8 C 16,9 C 22,9 C 25,5 C 25,5 C 2,7 C 40 % 41 % 71 % 1015,6 hPa 0,0 l/m 3,5 km/h (1 Bft) NO 45 0 min 0,3 UV-I 8,5 C 25,5 C 3,9 km/h (1 Bft)
21.04.2011 17:50 22,9 C 17,0 C 22,8 C 25,3 C 25,3 C 2,4 C 40 % 41 % 63 % 1015,6 hPa 0,0 l/m 3,2 km/h (1 Bft) O-NO 67 0 min 0,3 UV-I 8,6 C 25,3 C 2,6 km/h (1 Bft)
21.04.2011 17:55 22,7 C 17,0 C 22,7 C 25,3 C 25,3 C 2,6 C 40 % 41 % 68 % 1015,7 hPa 0,0 l/m 2,1 km/h (1 Bft) NO 45 0 min 0,2 UV-I 8,4 C 25,3 C 3,5 km/h (1 Bft)
21.04.2011 18:00 22,7 C 17,0 C 22,5 C 25,2 C 25,2 C 2,5 C 40 % 40 % 66 % 1015,7 hPa 0,0 l/m 2,3 km/h (1 Bft) O-NO 67 0 min 0,2 UV-I 8,4 C 25,2 C 2,3 km/h (1 Bft)
21.04.2011 18:10 22,4 C 17,0 C 22,3 C 24,6 C 24,6 C 2,2 C 40 % 42 % 58 % 1015,7 hPa 0,0 l/m 2,6 km/h (1 Bft) N 0 0 min 0,2 UV-I 8,1 C 24,6 C 3,2 km/h (1 Bft)
21.04.2011 18:15 22,4 C 17,0 C 22,0 C 24,3 C 24,3 C 1,9 C 40 % 42 % 50 % 1015,9 hPa 0,0 l/m 2,4 km/h (1 Bft) O-NO 67 0 min 0,1 UV-I 8,1 C 24,3 C 2,1 km/h (1 Bft)
21.04.2011 18:20 22,3 C 17,1 C 21,9 C 24,1 C 24,1 C 1,8 C 40 % 41 % 47 % 1015,9 hPa 0,0 l/m 2,4 km/h (1 Bft) O 90 0 min 0,1 UV-I 8,0 C 24,1 C 3,5 km/h (1 Bft)
21.04.2011 18:25 22,1 C 17,1 C 21,9 C 23,9 C 23,9 C 1,8 C 40 % 42 % 47 % 1015,9 hPa 0,0 l/m 2,7 km/h (1 Bft) O-NO 67 0 min 0,1 UV-I 7,9 C 23,9 C 3,7 km/h (1 Bft)
21.04.2011 18:30 22,0 C 17,1 C 21,7 C 23,7 C 23,7 C 1,7 C 41 % 42 % 45 % 1015,9 hPa 0,0 l/m 2,7 km/h (1 Bft) NO 45 0 min 0,1 UV-I 8,1 C 23,7 C 3,2 km/h (1 Bft)
21.04.2011 18:35 22,0 C 17,1 C 21,6 C 23,5 C 23,5 C 1,5 C 41 % 43 % 39 % 1015,5 hPa 0,0 l/m 2,6 km/h (1 Bft) NO 45 0 min 0,0 UV-I 8,1 C 23,5 C 4,2 km/h (1 Bft)
21.04.2011 18:40 21,8 C 17,1 C 21,5 C 23,3 C 23,3 C 1,5 C 41 % 43 % 39 % 1015,5 hPa 0,0 l/m 2,4 km/h (1 Bft) O-NO 67 0 min 0,0 UV-I 8,0 C 23,3 C 2,9 km/h (1 Bft)
21.04.2011 18:45 21,7 C 17,2 C 21,3 C 23,0 C 23,0 C 1,3 C 42 % 44 % 34 % 1015,5 hPa 0,0 l/m 2,3 km/h (1 Bft) O-NO 67 0 min 0,0 UV-I 8,2 C 23,0 C 2,1 km/h (1 Bft)
21.04.2011 18:50 21,6 C 17,2 C 21,3 C 22,8 C 22,8 C 1,2 C 42 % 44 % 32 % 1015,5 hPa 0,0 l/m 2,1 km/h (1 Bft) O-NO 67 0 min 0,0 UV-I 8,1 C 22,8 C 1,9 km/h (1 Bft)
21.04.2011 18:55 21,5 C 17,2 C 21,1 C 22,5 C 22,5 C 1,0 C 42 % 44 % 26 % 1015,5 hPa 0,0 l/m 1,9 km/h (1 Bft) O 90 0 min 0,0 UV-I 8,0 C 22,5 C 3,1 km/h (1 Bft)
21.04.2011 19:00 21,2 C 17,2 C 21,0 C 22,3 C 22,3 C 1,1 C 42 % 44 % 29 % 1015,5 hPa 0,0 l/m 2,3 km/h (1 Bft) O-NO 67 0 min 0,0 UV-I 7,8 C 22,3 C 3,1 km/h (1 Bft)
21.04.2011 19:10 21,1 C 17,2 C 20,5 C 21,5 C 21,5 C 0,4 C 43 % 45 % 11 % 1015,5 hPa 0,0 l/m 1,0 km/h (0 Bft) N 0 0 min 0,0 UV-I 8,0 C 21,5 C 0,0 km/h (0 Bft)
21.04.2011 19:15 20,9 C 17,2 C 20,3 C 21,2 C 21,2 C 0,3 C 43 % 46 % 8 % 1015,5 hPa 0,0 l/m 0,6 km/h (0 Bft) O-NO 67 0 min 0,0 UV-I 7,8 C 21,2 C 2,6 km/h (1 Bft)
21.04.2011 19:20 20,6 C 17,2 C 20,0 C 20,8 C 20,8 C 0,2 C 43 % 46 % 5 % 1015,5 hPa 0,0 l/m 1,6 km/h (1 Bft) O-NO 67 0 min 0,0 UV-I 7,6 C 20,8 C 4,2 km/h (1 Bft)
21.04.2011 19:25 20,4 C 17,2 C 19,9 C 20,4 C 20,4 C 0,0 C 44 % 47 % 0 % 1015,5 hPa 0,0 l/m 3,4 km/h (1 Bft) O 90 0 min 0,0 UV-I 7,7 C 20,4 C 4,7 km/h (1 Bft)
21.04.2011 19:30 20,2 C 17,3 C 19,7 C 20,2 C 20,1 C 0,0 C 45 % 48 % 0 % 1015,5 hPa 0,0 l/m 3,5 km/h (1 Bft) NO 45 0 min 0,0 UV-I 7,9 C 20,1 C 2,9 km/h (1 Bft)
21.04.2011 19:35 20,0 C 17,3 C 19,3 C 19,9 C 19,7 C 0,0 C 46 % 50 % 0 % 1015,5 hPa 0,0 l/m 2,7 km/h (1 Bft) O-NO 67 0 min 0,0 UV-I 8,0 C 19,7 C 3,2 km/h (1 Bft)
21.04.2011 19:40 19,9 C 17,3 C 19,2 C 19,8 C 19,5 C 0,0 C 45 % 49 % 0 % 1015,5 hPa 0,0 l/m 2,6 km/h (1 Bft) NO 45 0 min 0,0 UV-I 7,6 C 19,5 C 2,6 km/h (1 Bft)
21.04.2011 19:45 19,7 C 17,2 C 18,9 C 19,5 C 19,2 C 0,0 C 46 % 49 % 0 % 1015,5 hPa 0,0 l/m 3,1 km/h (1 Bft) NO 45 0 min 0,0 UV-I 7,8 C 19,2 C 3,1 km/h (1 Bft)
21.04.2011 19:50 19,5 C 17,2 C 18,7 C 19,3 C 19,0 C 0,0 C 46 % 50 % 0 % 1015,5 hPa 0,0 l/m 2,4 km/h (1 Bft) NO 45 0 min 0,0 UV-I 7,6 C 19,0 C 1,9 km/h (1 Bft)
21.04.2011 19:55 19,3 C 17,2 C 18,3 C 19,0 C 18,4 C 0,0 C 47 % 51 % 0 % 1015,6 hPa 0,0 l/m 1,0 km/h (0 Bft) N-NO 22 0 min 0,0 UV-I 7,7 C 18,4 C 0,0 km/h (0 Bft)
21.04.2011 20:00 19,2 C 17,2 C 18,0 C 18,8 C 18,0 C 0,0 C 47 % 53 % 0 % 1015,6 hPa 0,0 l/m 0,3 km/h (0 Bft) N-NO 22 0 min 0,0 UV-I 7,6 C 18,0 C 0,0 km/h (0 Bft)
21.04.2011 20:10 18,8 C 17,2 C 17,5 C 18,2 C 16,9 C 0,0 C 48 % 55 % 0 % 1015,6 hPa 0,0 l/m 0,0 km/h (0 Bft) N 0 0 min 0,0 UV-I 7,6 C 16,9 C 0,0 km/h (0 Bft)
21.04.2011 20:15 18,5 C 17,2 C 17,0 C 17,8 C 16,3 C 0,0 C 51 % 56 % 0 % 1015,8 hPa 0,0 l/m 0,0 km/h (0 Bft) N 360 0 min 0,0 UV-I 8,2 C 16,3 C 0,0 km/h (0 Bft)
21.04.2011 20:20 18,3 C 17,2 C 16,7 C 17,5 C 16,0 C 0,0 C 51 % 57 % 0 % 1015,8 hPa 0,0 l/m 0,0 km/h (0 Bft) N-NW 337 0 min 0,0 UV-I 8,0 C 16,0 C 0,0 km/h (0 Bft)
21.04.2011 20:25 18,3 C 17,2 C 16,4 C 17,4 C 15,6 C 0,0 C 52 % 60 % 0 % 1015,8 hPa 0,0 l/m 0,0 km/h (0 Bft) N-NW 337 0 min 0,0 UV-I 8,3 C 15,6 C 0,0 km/h (0 Bft)
21.04.2011 20:30 18,1 C 17,2 C 16,3 C 17,2 C 15,3 C 0,0 C 52 % 60 % 0 % 1015,8 hPa 0,0 l/m 0,0 km/h (0 Bft) N 360 0 min 0,0 UV-I 8,1 C 15,3 C 0,0 km/h (0 Bft)
21.04.2011 20:35 17,9 C 17,1 C 15,9 C 17,0 C 15,1 C 0,0 C 53 % 62 % 0 % 1015,9 hPa 0,0 l/m 0,2 km/h (0 Bft) O-NO 67 0 min 0,0 UV-I 8,2 C 15,1 C 0,0 km/h (0 Bft)
21.04.2011 20:40 17,7 C 17,1 C 15,7 C 16,8 C 15,0 C 0,0 C 54 % 62 % 0 % 1015,9 hPa 0,0 l/m 0,2 km/h (0 Bft) O-NO 67 0 min 0,0 UV-I 8,3 C 15,0 C 0,0 km/h (0 Bft)
21.04.2011 20:45 17,5 C 17,2 C 15,5 C 16,7 C 15,1 C 0,0 C 55 % 62 % 0 % 1015,9 hPa 0,0 l/m 0,0 km/h (0 Bft) NO 45 0 min 0,0 UV-I 8,4 C 15,1 C 0,0 km/h (0 Bft)
21.04.2011 20:50 17,2 C 17,2 C 15,5 C 16,5 C 15,0 C 0,0 C 56 % 64 % 0 % 1015,9 hPa 0,0 l/m 0,0 km/h (0 Bft) NO 45 0 min 0,0 UV-I 8,3 C 15,0 C 0,0 km/h (0 Bft)
21.04.2011 20:55 17,2 C 17,2 C 15,2 C 16,3 C 14,6 C 0,0 C 58 % 66 % 0 % 1015,6 hPa 0,0 l/m 0,0 km/h (0 Bft) W 270 0 min 0,0 UV-I 8,9 C 14,6 C 0,0 km/h (0 Bft)
21.04.2011 21:00 17,1 C 17,2 C 15,1 C 16,2 C 14,3 C 0,0 C 58 % 65 % 0 % 1015,6 hPa 0,0 l/m 0,0 km/h (0 Bft) W 270 0 min 0,0 UV-I 8,8 C 14,3 C 0,0 km/h (0 Bft)
21.04.2011 21:10 16,8 C 17,1 C 14,9 C 15,8 C 13,7 C 0,0 C 58 % 65 % 0 % 1015,6 hPa 0,0 l/m 0,0 km/h (0 Bft) N 0 0 min 0,0 UV-I 8,5 C 13,7 C 0,0 km/h (0 Bft)
21.04.2011 21:15 16,5 C 17,1 C 14,7 C 15,5 C 13,5 C 0,0 C 57 % 66 % 0 % 1015,7 hPa 0,0 l/m 0,0 km/h (0 Bft) W 270 0 min 0,0 UV-I 8,0 C 13,5 C 0,0 km/h (0 Bft)
21.04.2011 21:20 16,4 C 17,1 C 14,5 C 15,3 C 13,2 C 0,0 C 58 % 66 % 0 % 1015,7 hPa 0,0 l/m 0,0 km/h (0 Bft) W 270 0 min 0,0 UV-I 8,1 C 13,2 C 0,0 km/h (0 Bft)
21.04.2011 21:25 16,4 C 17,1 C 14,3 C 15,2 C 12,9 C 0,0 C 60 % 68 % 0 % 1015,7 hPa 0,0 l/m 0,0 km/h (0 Bft) W 270 0 min 0,0 UV-I 8,6 C 12,9 C 0,0 km/h (0 Bft)
21.04.2011 21:30 16,4 C 17,1 C 14,1 C 15,2 C 12,7 C 0,0 C 62 % 69 % 0 % 1015,7 hPa 0,0 l/m 0,0 km/h (0 Bft) W-SW 247 0 min 0,0 UV-I 9,1 C 12,7 C 0,0 km/h (0 Bft)
21.04.2011 21:35 16,1 C 17,1 C 13,9 C 14,9 C 12,4 C 0,0 C 61 % 68 % 0 % 1015,7 hPa 0,0 l/m 0,0 km/h (0 Bft) W-SW 247 0 min 0,0 UV-I 8,6 C 12,4 C 0,0 km/h (0 Bft)
21.04.2011 21:40 15,9 C 17,0 C 13,9 C 14,7 C 12,3 C 0,0 C 61 % 68 % 0 % 1015,7 hPa 0,0 l/m 0,0 km/h (0 Bft) W-SW 247 0 min 0,0 UV-I 8,4 C 12,3 C 0,0 km/h (0 Bft)
21.04.2011 21:45 15,7 C 17,0 C 13,7 C 14,5 C 12,1 C 0,0 C 62 % 69 % 0 % 1015,7 hPa 0,0 l/m 0,0 km/h (0 Bft) W-SW 247 0 min 0,0 UV-I 8,4 C 12,1 C 0,0 km/h (0 Bft)
21.04.2011 21:50 15,5 C 17,0 C 13,6 C 14,3 C 12,0 C 0,0 C 62 % 70 % 0 % 1015,7 hPa 0,0 l/m 0,0 km/h (0 Bft) W-SW 247 0 min 0,0 UV-I 8,3 C 12,0 C 0,0 km/h (0 Bft)
21.04.2011 21:55 15,5 C 17,0 C 13,3 C 14,2 C 11,6 C 0,0 C 64 % 72 % 0 % 1015,6 hPa 0,0 l/m 0,0 km/h (0 Bft) W-SW 247 0 min 0,0 UV-I 8,7 C 11,6 C 0,0 km/h (0 Bft)
21.04.2011 22:00 15,5 C 17,1 C 13,3 C 14,1 C 11,4 C 0,0 C 64 % 72 % 0 % 1015,6 hPa 0,0 l/m 0,0 km/h (0 Bft) W-SW 247 0 min 0,0 UV-I 8,7 C 11,4 C 0,0 km/h (0 Bft)
21.04.2011 22:10 14,9 C 17,1 C 13,1 C 13,6 C 11,1 C 0,0 C 65 % 72 % 0 % 1015,6 hPa 0,0 l/m 0,0 km/h (0 Bft) N 0 0 min 0,0 UV-I 8,4 C 11,1 C 0,0 km/h (0 Bft)
21.04.2011 22:15 14,8 C 17,0 C 12,9 C 13,5 C 11,0 C 0,0 C 65 % 73 % 0 % 1015,5 hPa 0,0 l/m 0,0 km/h (0 Bft) W-SW 247 0 min 0,0 UV-I 8,3 C 11,0 C 0,0 km/h (0 Bft)
21.04.2011 22:20 14,7 C 17,0 C 12,8 C 13,5 C 11,0 C 0,0 C 65 % 73 % 0 % 1015,5 hPa 0,0 l/m 0,0 km/h (0 Bft) W-SW 247 0 min 0,0 UV-I 8,2 C 11,0 C 0,0 km/h (0 Bft)
21.04.2011 22:25 14,7 C 17,0 C 12,5 C 13,4 C 10,7 C 0,0 C 67 % 74 % 0 % 1015,5 hPa 0,0 l/m 0,0 km/h (0 Bft) W 270 0 min 0,0 UV-I 8,6 C 10,7 C 0,0 km/h (0 Bft)
21.04.2011 22:30 14,6 C 17,0 C 12,4 C 13,3 C 10,6 C 0,0 C 67 % 75 % 0 % 1015,5 hPa 0,0 l/m 0,0 km/h (0 Bft) NW 315 0 min 0,0 UV-I 8,5 C 10,6 C 0,0 km/h (0 Bft)
21.04.2011 22:35 14,4 C 17,0 C 12,3 C 13,1 C 10,5 C 0,0 C 66 % 74 % 0 % 1015,6 hPa 0,0 l/m 0,0 km/h (0 Bft) NW 315 0 min 0,0 UV-I 8,1 C 10,5 C 0,0 km/h (0 Bft)
21.04.2011 22:40 14,2 C 17,0 C 12,2 C 12,9 C 10,4 C 0,0 C 67 % 74 % 0 % 1015,6 hPa 0,0 l/m 0,0 km/h (0 Bft) NW 315 0 min 0,0 UV-I 8,2 C 10,4 C 0,0 km/h (0 Bft)
21.04.2011 22:45 13,9 C 17,0 C 11,9 C 12,7 C 10,3 C 0,0 C 68 % 76 % 0 % 1015,6 hPa 0,0 l/m 0,2 km/h (0 Bft) O-NO 67 0 min 0,0 UV-I 8,1 C 10,3 C 1,8 km/h (1 Bft)
21.04.2011 22:50 13,8 C 17,0 C 11,9 C 12,6 C 10,3 C 0,0 C 69 % 76 % 0 % 1015,6 hPa 0,0 l/m 0,2 km/h (0 Bft) N-NO 22 0 min 0,0 UV-I 8,2 C 10,3 C 0,0 km/h (0 Bft)
21.04.2011 22:55 13,9 C 16,9 C 11,7 C 12,6 C 10,1 C 0,0 C 69 % 77 % 0 % 1015,9 hPa 0,0 l/m 0,3 km/h (0 Bft) S-SW 202 0 min 0,0 UV-I 8,3 C 10,1 C 0,0 km/h (0 Bft)
21.04.2011 23:00 13,9 C 16,9 C 11,6 C 12,6 C 10,0 C 0,0 C 69 % 77 % 0 % 1015,9 hPa 0,0 l/m 0,2 km/h (0 Bft) W-SW 247 0 min 0,0 UV-I 8,3 C 10,0 C 0,0 km/h (0 Bft)
21.04.2011 23:10 13,5 C 17,0 C 11,4 C 12,2 C 9,7 C 0,0 C 70 % 78 % 0 % 1015,9 hPa 0,0 l/m 0,5 km/h (0 Bft) N 0 0 min 0,0 UV-I 8,1 C 9,7 C 1,9 km/h (1 Bft)
21.04.2011 23:15 13,1 C 16,9 C 11,2 C 12,0 C 9,8 C 0,0 C 71 % 78 % 0 % 1015,6 hPa 0,0 l/m 0,6 km/h (0 Bft) SO 135 0 min 0,0 UV-I 8,0 C 9,8 C 0,0 km/h (0 Bft)
21.04.2011 23:20 13,1 C 16,9 C 11,3 C 12,0 C 9,7 C 0,0 C 71 % 79 % 0 % 1015,6 hPa 0,0 l/m 0,5 km/h (0 Bft) O-NO 67 0 min 0,0 UV-I 8,0 C 9,7 C 0,0 km/h (0 Bft)
21.04.2011 23:25 13,1 C 16,9 C 11,1 C 11,9 C 9,4 C 0,0 C 72 % 79 % 0 % 1015,6 hPa 0,0 l/m 0,0 km/h (0 Bft) W-SW 247 0 min 0,0 UV-I 8,2 C 9,4 C 0,0 km/h (0 Bft)
21.04.2011 23:30 13,1 C 16,9 C 11,0 C 11,8 C 9,3 C 0,0 C 71 % 79 % 0 % 1015,6 hPa 0,0 l/m 0,0 km/h (0 Bft) W-SW 247 0 min 0,0 UV-I 8,0 C 9,3 C 0,0 km/h (0 Bft)
21.04.2011 23:35 12,8 C 17,0 C 11,0 C 11,6 C 9,3 C 0,0 C 72 % 79 % 0 % 1015,4 hPa 0,0 l/m 0,2 km/h (0 Bft) W-SW 247 0 min 0,0 UV-I 7,9 C 9,3 C 0,0 km/h (0 Bft)
21.04.2011 23:40 12,7 C 16,9 C 10,8 C 11,5 C 9,2 C 0,0 C 72 % 79 % 0 % 1015,4 hPa 0,0 l/m 0,2 km/h (0 Bft) W-SW 247 0 min 0,0 UV-I 7,8 C 9,2 C 0,0 km/h (0 Bft)
21.04.2011 23:45 12,8 C 16,8 C 10,9 C 11,5 C 8,9 C 0,0 C 73 % 80 % 0 % 1015,4 hPa 0,0 l/m 0,0 km/h (0 Bft) SW 225 0 min 0,0 UV-I 8,1 C 8,9 C 1,8 km/h (1 Bft)
21.04.2011 23:50 12,8 C 16,8 C 10,7 C 11,5 C 8,9 C 0,0 C 73 % 80 % 0 % 1015,4 hPa 0,0 l/m 0,2 km/h (0 Bft) SW 225 0 min 0,0 UV-I 8,1 C 8,9 C 0,0 km/h (0 Bft)
21.04.2011 23:55 12,6 C 16,8 C 10,7 C 11,3 C 8,7 C 0,0 C 73 % 81 % 0 % 1015,6 hPa 0,0 l/m 0,2 km/h (0 Bft) SW 225 0 min 0,0 UV-I 7,9 C 8,7 C 0,0 km/h (0 Bft)
_ Min-Zeit 06:30 09:30 06:10 06:30 06:10 00:00 17:00 15:20 00:00 23:35 - 00:00 - - - 00:00 06:30 06:10 00:00
Minimum _ 7,3 C 13,8 C 5,8 C 6,2 C 4,1 C 0,0 C 37 % 33 % 0 % 1015,4 hPa - 0,0 km/h (0 Bft) - - - 0,0 UV-I 4,4 C 4,1 C 0,0 km/h (0 Bft)
_ Max-Zeit 15:50 19:30 15:45 15:15 15:15 09:15 03:45 05:20 08:40 06:55 00:00 14:00 - - 09:10 13:10 12:50 15:15 13:55
Maximum _ 23,3 C 17,3 C 27,3 C 29,5 C 29,5 C 7,0 C 83 % 89 % 100 % 1018,0 hPa 0,0 l/m 5,0 km/h
NW (1 Bft)
- - 10 min 2,7 UV-I 11,0 C 29,5 C 10,6 km/h
NO (2 Bft)
Durchschnitt _ 15,5 C 15,7 C 14,7 C 16,8 C 15,7 C 1,8 C 62 % 67 % 38 % 1016,6 hPa #0,0 l/m 1,0 km/h (0 Bft) O-NO - #7:15 h 1,2 UV-I 7,8 C 15,7 C 1,4 km/h (1 Bft)
2013 www.wetterstation-wechselburg.de